sensor_id;sensor_type;location;lat;lon;timestamp;pressure;altitude;pressure_sealevel;temperature;humidity
28626;BME280;18905;42.668;23.364;2023-02-19T00:01:05;95371.19;;;7.96;82.29
28626;BME280;18905;42.668;23.364;2023-02-19T00:03:31;95357.59;;;8.06;82.52
28626;BME280;18905;42.668;23.364;2023-02-19T00:05:58;95369.06;;;8.11;82.31
28626;BME280;18905;42.668;23.364;2023-02-19T00:08:25;95361.09;;;8.20;81.31
28626;BME280;18905;42.668;23.364;2023-02-19T00:10:50;95351.44;;;8.19;81.79
28626;BME280;18905;42.668;23.364;2023-02-19T00:13:15;95360.63;;;8.18;82.17
28626;BME280;18905;42.668;23.364;2023-02-19T00:15:40;95347.09;;;8.23;82.78
28626;BME280;18905;42.668;23.364;2023-02-19T00:18:06;95357.34;;;8.21;82.68
28626;BME280;18905;42.668;23.364;2023-02-19T00:20:31;95353.13;;;8.15;83.67
28626;BME280;18905;42.668;23.364;2023-02-19T00:22:56;95361.09;;;8.20;82.74
28626;BME280;18905;42.668;23.364;2023-02-19T00:25:22;95356.72;;;8.10;83.74
28626;BME280;18905;42.668;23.364;2023-02-19T00:27:47;95347.84;;;8.10;83.87
28626;BME280;18905;42.668;23.364;2023-02-19T00:30:12;95347.59;;;8.25;84.12
28626;BME280;18905;42.668;23.364;2023-02-19T00:32:37;95336.69;;;8.16;83.68
28626;BME280;18905;42.668;23.364;2023-02-19T00:35:03;95343.66;;;8.04;84.58
28626;BME280;18905;42.668;23.364;2023-02-19T00:37:28;95343.34;;;8.05;85.47
28626;BME280;18905;42.668;23.364;2023-02-19T00:39:53;95337.25;;;8.00;85.69
28626;BME280;18905;42.668;23.364;2023-02-19T00:42:19;95344.13;;;7.92;86.57
28626;BME280;18905;42.668;23.364;2023-02-19T00:44:44;95330.44;;;7.89;87.54
28626;BME280;18905;42.668;23.364;2023-02-19T00:47:09;95345.06;;;7.83;88.21
28626;BME280;18905;42.668;23.364;2023-02-19T00:49:34;95327.34;;;7.82;87.97
28626;BME280;18905;42.668;23.364;2023-02-19T00:52:00;95331.03;;;7.54;89.86
28626;BME280;18905;42.668;23.364;2023-02-19T00:54:25;95326.31;;;7.64;90.40
28626;BME280;18905;42.668;23.364;2023-02-19T00:56:51;95318.53;;;7.63;90.04
28626;BME280;18905;42.668;23.364;2023-02-19T00:59:16;95320.13;;;7.64;89.95
28626;BME280;18905;42.668;23.364;2023-02-19T01:01:42;95319.81;;;7.65;90.13
28626;BME280;18905;42.668;23.364;2023-02-19T01:04:11;95327.59;;;7.67;89.78
28626;BME280;18905;42.668;23.364;2023-02-19T01:06:36;95328.34;;;7.54;91.55
28626;BME280;18905;42.668;23.364;2023-02-19T01:09:02;95322.97;;;7.54;91.60
28626;BME280;18905;42.668;23.364;2023-02-19T01:11:28;95326.44;;;7.54;91.93
28626;BME280;18905;42.668;23.364;2023-02-19T01:13:57;95329.44;;;7.53;92.06
28626;BME280;18905;42.668;23.364;2023-02-19T01:16:22;95332.13;;;7.53;92.83
28626;BME280;18905;42.668;23.364;2023-02-19T01:18:48;95322.53;;;6.91;96.06
28626;BME280;18905;42.668;23.364;2023-02-19T01:21:18;95321.44;;;7.11;95.73
28626;BME280;18905;42.668;23.364;2023-02-19T01:23:44;95314.47;;;7.10;95.36
28626;BME280;18905;42.668;23.364;2023-02-19T01:26:13;95320.06;;;6.95;95.75
28626;BME280;18905;42.668;23.364;2023-02-19T01:28:39;95323.25;;;6.97;97.07
28626;BME280;18905;42.668;23.364;2023-02-19T01:31:05;95334.09;;;7.10;96.57
28626;BME280;18905;42.668;23.364;2023-02-19T01:33:31;95339.81;;;7.04;96.72
28626;BME280;18905;42.668;23.364;2023-02-19T01:35:56;95340.31;;;7.06;96.72
28626;BME280;18905;42.668;23.364;2023-02-19T01:38:22;95335.97;;;7.10;96.47
28626;BME280;18905;42.668;23.364;2023-02-19T01:40:57;95327.06;;;7.14;96.22
28626;BME280;18905;42.668;23.364;2023-02-19T01:43:22;95348.91;;;7.08;97.17
28626;BME280;18905;42.668;23.364;2023-02-19T01:45:48;95357.97;;;7.12;96.75
28626;BME280;18905;42.668;23.364;2023-02-19T01:48:18;95364.06;;;6.99;97.87
28626;BME280;18905;42.668;23.364;2023-02-19T01:50:48;95369.22;;;6.95;97.99
28626;BME280;18905;42.668;23.364;2023-02-19T01:53:18;95369.63;;;7.02;98.65
28626;BME280;18905;42.668;23.364;2023-02-19T01:55:47;95368.81;;;7.02;98.10
28626;BME280;18905;42.668;23.364;2023-02-19T01:58:14;95359.66;;;6.84;99.47
28626;BME280;18905;42.668;23.364;2023-02-19T02:00:40;95364.81;;;6.81;100.00
28626;BME280;18905;42.668;23.364;2023-02-19T02:03:06;95372.53;;;6.87;100.00
28626;BME280;18905;42.668;23.364;2023-02-19T02:05:34;95351.25;;;6.91;100.00
28626;BME280;18905;42.668;23.364;2023-02-19T02:08:01;95369.63;;;6.84;100.00
28626;BME280;18905;42.668;23.364;2023-02-19T02:10:46;95365.25;;;6.88;100.00
28626;BME280;18905;42.668;23.364;2023-02-19T02:13:11;95363.94;;;6.85;100.00
28626;BME280;18905;42.668;23.364;2023-02-19T02:16:11;95361.38;;;6.75;100.00
28626;BME280;18905;42.668;23.364;2023-02-19T02:18:40;95348.56;;;6.91;100.00
28626;BME280;18905;42.668;23.364;2023-02-19T02:26:38;95365.75;;;6.48;100.00
28626;BME280;18905;42.668;23.364;2023-02-19T02:32:01;95366.31;;;6.68;100.00
28626;BME280;18905;42.668;23.364;2023-02-19T02:34:51;95357.34;;;6.54;100.00
28626;BME280;18905;42.668;23.364;2023-02-19T02:37:13;95370.88;;;6.68;100.00
28626;BME280;18905;42.668;23.364;2023-02-19T02:39:39;95369.78;;;6.69;100.00
28626;BME280;18905;42.668;23.364;2023-02-19T02:42:05;95360.59;;;6.75;100.00
28626;BME280;18905;42.668;23.364;2023-02-19T02:44:49;95356.38;;;6.69;100.00
28626;BME280;18905;42.668;23.364;2023-02-19T02:47:51;95359.72;;;6.79;100.00
28626;BME280;18905;42.668;23.364;2023-02-19T02:53:12;95352.03;;;6.73;100.00
28626;BME280;18905;42.668;23.364;2023-02-19T02:55:57;95347.34;;;6.60;100.00
28626;BME280;18905;42.668;23.364;2023-02-19T02:58:24;95355.59;;;6.68;100.00
28626;BME280;18905;42.668;23.364;2023-02-19T03:00:51;95351.53;;;6.71;100.00
28626;BME280;18905;42.668;23.364;2023-02-19T03:03:37;95366.47;;;6.77;100.00
28626;BME280;18905;42.668;23.364;2023-02-19T03:06:04;95363.78;;;6.77;100.00
28626;BME280;18905;42.668;23.364;2023-02-19T03:08:33;95366.69;;;6.80;100.00
28626;BME280;18905;42.668;23.364;2023-02-19T03:11:08;95373.34;;;6.64;100.00
28626;BME280;18905;42.668;23.364;2023-02-19T03:13:54;95374.75;;;6.57;100.00
28626;BME280;18905;42.668;23.364;2023-02-19T03:16:42;95376.47;;;6.48;100.00
28626;BME280;18905;42.668;23.364;2023-02-19T03:19:27;95378.72;;;5.79;100.00
28626;BME280;18905;42.668;23.364;2023-02-19T03:24:20;95379.72;;;6.16;100.00
28626;BME280;18905;42.668;23.364;2023-02-19T03:27:05;95390.59;;;6.30;100.00
28626;BME280;18905;42.668;23.364;2023-02-19T03:29:31;95390.78;;;6.38;100.00
28626;BME280;18905;42.668;23.364;2023-02-19T03:32:21;95383.50;;;6.44;100.00
28626;BME280;18905;42.668;23.364;2023-02-19T03:34:55;95391.75;;;6.47;100.00
28626;BME280;18905;42.668;23.364;2023-02-19T03:37:29;95391.09;;;6.60;100.00
28626;BME280;18905;42.668;23.364;2023-02-19T03:39:56;95412.78;;;6.64;100.00
28626;BME280;18905;42.668;23.364;2023-02-19T03:47:52;95421.19;;;6.81;99.12
28626;BME280;18905;42.668;23.364;2023-02-19T03:50:28;95423.91;;;6.76;99.47
28626;BME280;18905;42.668;23.364;2023-02-19T03:53:02;95416.44;;;6.73;99.11
28626;BME280;18905;42.668;23.364;2023-02-19T03:57:56;95420.88;;;6.59;100.00
28626;BME280;18905;42.668;23.364;2023-02-19T04:05:20;95422.59;;;6.50;100.00
28626;BME280;18905;42.668;23.364;2023-02-19T04:07:48;95430.63;;;6.50;100.00
28626;BME280;18905;42.668;23.364;2023-02-19T04:10:14;95431.19;;;6.47;100.00
28626;BME280;18905;42.668;23.364;2023-02-19T04:12:42;95427.88;;;6.31;100.00
28626;BME280;18905;42.668;23.364;2023-02-19T04:15:11;95428.66;;;6.32;100.00
28626;BME280;18905;42.668;23.364;2023-02-19T04:17:42;95434.88;;;6.27;100.00
28626;BME280;18905;42.668;23.364;2023-02-19T04:20:09;95438.59;;;6.31;100.00
28626;BME280;18905;42.668;23.364;2023-02-19T04:22:36;95435.16;;;6.26;100.00
28626;BME280;18905;42.668;23.364;2023-02-19T04:25:02;95433.31;;;6.21;100.00
28626;BME280;18905;42.668;23.364;2023-02-19T04:27:28;95435.16;;;6.26;100.00
28626;BME280;18905;42.668;23.364;2023-02-19T04:29:53;95438.34;;;6.28;100.00
28626;BME280;18905;42.668;23.364;2023-02-19T04:32:18;95438.75;;;6.11;100.00
28626;BME280;18905;42.668;23.364;2023-02-19T04:34:43;95445.69;;;5.79;100.00
28626;BME280;18905;42.668;23.364;2023-02-19T04:37:09;95433.34;;;5.78;100.00
28626;BME280;18905;42.668;23.364;2023-02-19T04:39:34;95429.19;;;5.62;100.00
28626;BME280;18905;42.668;23.364;2023-02-19T04:41:59;95439.53;;;5.83;100.00
28626;BME280;18905;42.668;23.364;2023-02-19T04:44:24;95438.22;;;5.76;100.00
28626;BME280;18905;42.668;23.364;2023-02-19T04:46:50;95439.25;;;5.80;100.00
28626;BME280;18905;42.668;23.364;2023-02-19T04:49:15;95439.75;;;5.87;100.00
28626;BME280;18905;42.668;23.364;2023-02-19T04:51:40;95455.25;;;5.95;100.00
28626;BME280;18905;42.668;23.364;2023-02-19T04:54:06;95439.72;;;5.92;100.00
28626;BME280;18905;42.668;23.364;2023-02-19T04:56:31;95448.47;;;6.02;100.00
28626;BME280;18905;42.668;23.364;2023-02-19T04:58:56;95449.75;;;6.10;100.00
28626;BME280;18905;42.668;23.364;2023-02-19T05:01:22;95449.97;;;6.18;100.00
28626;BME280;18905;42.668;23.364;2023-02-19T05:03:48;95447.53;;;6.22;100.00
28626;BME280;18905;42.668;23.364;2023-02-19T05:06:14;95455.75;;;6.30;100.00
28626;BME280;18905;42.668;23.364;2023-02-19T05:08:39;95453.94;;;6.26;100.00
28626;BME280;18905;42.668;23.364;2023-02-19T05:11:06;95453.31;;;6.34;100.00
28626;BME280;18905;42.668;23.364;2023-02-19T05:13:31;95457.69;;;6.25;100.00
28626;BME280;18905;42.668;23.364;2023-02-19T05:15:57;95460.06;;;6.26;100.00
28626;BME280;18905;42.668;23.364;2023-02-19T05:18:24;95445.34;;;6.24;100.00
28626;BME280;18905;42.668;23.364;2023-02-19T05:20:50;95466.16;;;6.03;100.00
28626;BME280;18905;42.668;23.364;2023-02-19T05:23:15;95455.78;;;5.92;100.00
28626;BME280;18905;42.668;23.364;2023-02-19T05:25:40;95458.44;;;5.97;100.00
28626;BME280;18905;42.668;23.364;2023-02-19T05:28:05;95460.16;;;5.83;100.00
28626;BME280;18905;42.668;23.364;2023-02-19T05:30:47;95464.41;;;5.89;100.00
28626;BME280;18905;42.668;23.364;2023-02-19T05:33:13;95463.91;;;5.82;100.00
28626;BME280;18905;42.668;23.364;2023-02-19T05:35:39;95471.28;;;6.00;100.00
28626;BME280;18905;42.668;23.364;2023-02-19T05:38:05;95460.34;;;5.96;100.00
28626;BME280;18905;42.668;23.364;2023-02-19T05:40:32;95472.59;;;6.02;100.00
28626;BME280;18905;42.668;23.364;2023-02-19T05:42:57;95482.94;;;6.19;100.00
28626;BME280;18905;42.668;23.364;2023-02-19T05:45:22;95477.94;;;6.41;100.00
28626;BME280;18905;42.668;23.364;2023-02-19T05:47:48;95475.13;;;6.51;100.00
28626;BME280;18905;42.668;23.364;2023-02-19T05:50:13;95477.16;;;6.64;100.00
28626;BME280;18905;42.668;23.364;2023-02-19T05:52:38;95484.22;;;5.93;100.00
28626;BME280;18905;42.668;23.364;2023-02-19T05:55:04;95478.88;;;6.21;100.00
28626;BME280;18905;42.668;23.364;2023-02-19T05:57:29;95482.88;;;5.47;100.00
28626;BME280;18905;42.668;23.364;2023-02-19T05:59:55;95485.84;;;5.89;100.00
28626;BME280;18905;42.668;23.364;2023-02-19T06:02:20;95493.28;;;6.30;100.00
28626;BME280;18905;42.668;23.364;2023-02-19T06:04:45;95499.44;;;6.64;100.00
28626;BME280;18905;42.668;23.364;2023-02-19T06:07:10;95497.53;;;6.93;100.00
28626;BME280;18905;42.668;23.364;2023-02-19T06:09:36;95510.63;;;7.23;100.00
28626;BME280;18905;42.668;23.364;2023-02-19T06:12:01;95504.50;;;7.41;99.47
28626;BME280;18905;42.668;23.364;2023-02-19T06:14:26;95513.53;;;7.69;96.67
28626;BME280;18905;42.668;23.364;2023-02-19T06:16:52;95511.91;;;7.91;94.01
28626;BME280;18905;42.668;23.364;2023-02-19T06:19:17;95512.84;;;8.19;92.58
28626;BME280;18905;42.668;23.364;2023-02-19T06:21:42;95513.56;;;8.43;89.40
28626;BME280;18905;42.668;23.364;2023-02-19T06:24:08;95501.28;;;8.69;88.37
28626;BME280;18905;42.668;23.364;2023-02-19T06:26:33;95516.59;;;9.00;84.41
28626;BME280;18905;42.668;23.364;2023-02-19T06:28:58;95507.38;;;9.33;82.07
28626;BME280;18905;42.668;23.364;2023-02-19T06:31:24;95501.34;;;9.77;77.27
28626;BME280;18905;42.668;23.364;2023-02-19T06:33:49;95505.69;;;10.13;74.65
28626;BME280;18905;42.668;23.364;2023-02-19T06:36:16;95506.72;;;10.26;72.86
28626;BME280;18905;42.668;23.364;2023-02-19T06:38:41;95515.97;;;10.69;72.48
28626;BME280;18905;42.668;23.364;2023-02-19T06:41:07;95515.28;;;11.16;69.99
28626;BME280;18905;42.668;23.364;2023-02-19T06:43:33;95510.16;;;11.76;65.96
28626;BME280;18905;42.668;23.364;2023-02-19T06:46:02;95508.00;;;12.46;62.38
28626;BME280;18905;42.668;23.364;2023-02-19T06:48:28;95511.91;;;13.25;59.89
28626;BME280;18905;42.668;23.364;2023-02-19T06:50:54;95505.69;;;14.20;56.76
28626;BME280;18905;42.668;23.364;2023-02-19T06:53:19;95507.63;;;14.81;53.61
28626;BME280;18905;42.668;23.364;2023-02-19T06:55:53;95513.06;;;15.13;52.33
28626;BME280;18905;42.668;23.364;2023-02-19T06:58:19;95517.88;;;15.85;50.17
28626;BME280;18905;42.668;23.364;2023-02-19T07:00:44;95519.31;;;16.54;49.46
28626;BME280;18905;42.668;23.364;2023-02-19T07:03:09;95521.72;;;16.83;47.59
28626;BME280;18905;42.668;23.364;2023-02-19T07:05:34;95525.56;;;17.10;46.27
28626;BME280;18905;42.668;23.364;2023-02-19T07:08:00;95539.19;;;16.19;47.12
28626;BME280;18905;42.668;23.364;2023-02-19T07:10:25;95530.44;;;16.37;46.69
28626;BME280;18905;42.668;23.364;2023-02-19T07:12:50;95516.38;;;15.87;48.22
28626;BME280;18905;42.668;23.364;2023-02-19T07:15:15;95528.56;;;16.77;46.61
28626;BME280;18905;42.668;23.364;2023-02-19T07:17:41;95526.56;;;17.17;45.53
28626;BME280;18905;42.668;23.364;2023-02-19T07:20:06;95524.53;;;17.42;45.28
28626;BME280;18905;42.668;23.364;2023-02-19T07:22:31;95517.25;;;17.18;45.10
28626;BME280;18905;42.668;23.364;2023-02-19T07:24:57;95514.97;;;17.63;43.08
28626;BME280;18905;42.668;23.364;2023-02-19T07:27:22;95507.84;;;17.90;43.49
28626;BME280;18905;42.668;23.364;2023-02-19T07:29:47;95494.91;;;18.90;42.16
28626;BME280;18905;42.668;23.364;2023-02-19T07:32:12;95499.78;;;18.81;41.65
28626;BME280;18905;42.668;23.364;2023-02-19T07:34:38;95493.97;;;18.83;41.81
28626;BME280;18905;42.668;23.364;2023-02-19T07:37:03;95490.00;;;19.60;40.01
28626;BME280;18905;42.668;23.364;2023-02-19T07:39:28;95489.59;;;19.80;39.98
28626;BME280;18905;42.668;23.364;2023-02-19T07:41:53;95492.25;;;17.75;42.54
28626;BME280;18905;42.668;23.364;2023-02-19T07:44:19;95489.31;;;18.14;42.94
28626;BME280;18905;42.668;23.364;2023-02-19T07:46:44;95497.47;;;19.40;40.96
28626;BME280;18905;42.668;23.364;2023-02-19T07:49:09;95489.03;;;20.16;40.07
28626;BME280;18905;42.668;23.364;2023-02-19T07:51:34;95494.41;;;19.87;39.83
28626;BME280;18905;42.668;23.364;2023-02-19T07:54:00;95493.41;;;18.39;42.17
28626;BME280;18905;42.668;23.364;2023-02-19T07:56:25;95491.03;;;18.91;41.30
28626;BME280;18905;42.668;23.364;2023-02-19T07:58:52;95495.47;;;18.99;41.40
28626;BME280;18905;42.668;23.364;2023-02-19T08:01:18;95494.84;;;18.87;41.25
28626;BME280;18905;42.668;23.364;2023-02-19T08:04:04;95492.63;;;19.75;39.76
28626;BME280;18905;42.668;23.364;2023-02-19T08:06:29;95495.34;;;18.73;40.92
28626;BME280;18905;42.668;23.364;2023-02-19T08:08:55;95490.88;;;18.65;41.30
28626;BME280;18905;42.668;23.364;2023-02-19T08:11:21;95485.03;;;19.05;41.17
28626;BME280;18905;42.668;23.364;2023-02-19T08:14:05;95482.03;;;19.51;40.14
28626;BME280;18905;42.668;23.364;2023-02-19T08:16:30;95488.00;;;19.79;39.38
28626;BME280;18905;42.668;23.364;2023-02-19T08:18:56;95484.94;;;19.39;39.62
28626;BME280;18905;42.668;23.364;2023-02-19T08:21:21;95481.72;;;19.15;40.05
28626;BME280;18905;42.668;23.364;2023-02-19T08:23:46;95493.03;;;18.75;40.70
28626;BME280;18905;42.668;23.364;2023-02-19T08:26:12;95491.03;;;18.91;40.04
28626;BME280;18905;42.668;23.364;2023-02-19T08:28:37;95478.63;;;18.59;41.34
28626;BME280;18905;42.668;23.364;2023-02-19T08:31:03;95478.19;;;19.14;39.88
28626;BME280;18905;42.668;23.364;2023-02-19T08:33:30;95483.09;;;18.17;41.34
28626;BME280;18905;42.668;23.364;2023-02-19T08:35:56;95482.88;;;17.02;42.44
28626;BME280;18905;42.668;23.364;2023-02-19T08:38:21;95482.38;;;17.55;42.30
28626;BME280;18905;42.668;23.364;2023-02-19T08:40:47;95487.53;;;17.01;43.07
28626;BME280;18905;42.668;23.364;2023-02-19T08:43:13;95483.22;;;16.21;44.26
28626;BME280;18905;42.668;23.364;2023-02-19T08:45:42;95479.38;;;15.38;46.17
28626;BME280;18905;42.668;23.364;2023-02-19T08:48:09;95468.84;;;15.73;45.89
28626;BME280;18905;42.668;23.364;2023-02-19T08:50:34;95476.97;;;17.27;44.10
28626;BME280;18905;42.668;23.364;2023-02-19T08:53:00;95469.59;;;17.59;43.41
28626;BME280;18905;42.668;23.364;2023-02-19T08:55:27;95466.69;;;17.83;41.81
28626;BME280;18905;42.668;23.364;2023-02-19T08:57:52;95462.78;;;16.79;43.61
28626;BME280;18905;42.668;23.364;2023-02-19T09:00:17;95447.03;;;16.09;45.43
28626;BME280;18905;42.668;23.364;2023-02-19T09:02:42;95451.66;;;17.15;43.63
28626;BME280;18905;42.668;23.364;2023-02-19T09:05:09;95447.69;;;17.71;43.03
28626;BME280;18905;42.668;23.364;2023-02-19T09:07:35;95447.38;;;18.07;42.30
28626;BME280;18905;42.668;23.364;2023-02-19T09:10:00;95440.81;;;18.46;42.95
28626;BME280;18905;42.668;23.364;2023-02-19T09:12:25;95430.34;;;18.48;42.63
28626;BME280;18905;42.668;23.364;2023-02-19T09:14:51;95424.13;;;18.16;43.35
28626;BME280;18905;42.668;23.364;2023-02-19T09:17:16;95423.53;;;18.07;43.17
28626;BME280;18905;42.668;23.364;2023-02-19T09:19:42;95418.72;;;18.35;43.03
28626;BME280;18905;42.668;23.364;2023-02-19T09:22:07;95406.47;;;19.05;42.62
28626;BME280;18905;42.668;23.364;2023-02-19T09:24:32;95385.50;;;18.33;42.62
28626;BME280;18905;42.668;23.364;2023-02-19T09:26:58;95400.44;;;18.77;42.18
28626;BME280;18905;42.668;23.364;2023-02-19T09:29:24;95411.47;;;18.43;42.63
28626;BME280;18905;42.668;23.364;2023-02-19T09:31:50;95414.94;;;18.40;43.07
28626;BME280;18905;42.668;23.364;2023-02-19T09:34:15;95418.81;;;19.18;42.05
28626;BME280;18905;42.668;23.364;2023-02-19T09:36:40;95421.03;;;18.71;43.21
28626;BME280;18905;42.668;23.364;2023-02-19T09:39:08;95405.16;;;18.23;43.32
28626;BME280;18905;42.668;23.364;2023-02-19T09:41:35;95410.16;;;18.94;43.00
28626;BME280;18905;42.668;23.364;2023-02-19T09:44:02;95408.38;;;18.63;42.99
28626;BME280;18905;42.668;23.364;2023-02-19T09:46:29;95410.69;;;18.61;43.32
28626;BME280;18905;42.668;23.364;2023-02-19T09:49:04;95408.47;;;19.08;43.44
28626;BME280;18905;42.668;23.364;2023-02-19T09:51:30;95411.44;;;19.00;43.44
28626;BME280;18905;42.668;23.364;2023-02-19T09:53:56;95400.56;;;18.62;43.81
28626;BME280;18905;42.668;23.364;2023-02-19T09:56:21;95401.88;;;18.90;43.18
28626;BME280;18905;42.668;23.364;2023-02-19T09:58:52;95386.84;;;18.43;43.62
28626;BME280;18905;42.668;23.364;2023-02-19T10:01:18;95381.13;;;18.13;43.82
28626;BME280;18905;42.668;23.364;2023-02-19T10:03:45;95374.59;;;18.94;42.51
28626;BME280;18905;42.668;23.364;2023-02-19T10:06:18;95358.38;;;18.63;42.46
28626;BME280;18905;42.668;23.364;2023-02-19T10:08:46;95362.66;;;18.26;42.46
28626;BME280;18905;42.668;23.364;2023-02-19T10:11:11;95360.66;;;18.42;42.72
28626;BME280;18905;42.668;23.364;2023-02-19T10:13:41;95350.63;;;18.87;42.05
28626;BME280;18905;42.668;23.364;2023-02-19T10:16:10;95353.00;;;19.11;42.13
28626;BME280;18905;42.668;23.364;2023-02-19T10:18:40;95351.81;;;19.31;40.75
28626;BME280;18905;42.668;23.364;2023-02-19T10:21:08;95338.28;;;19.42;40.75
28626;BME280;18905;42.668;23.364;2023-02-19T10:23:35;95339.63;;;19.06;41.33
28626;BME280;18905;42.668;23.364;2023-02-19T10:26:00;95336.59;;;19.34;41.11
28626;BME280;18905;42.668;23.364;2023-02-19T10:28:27;95331.50;;;19.32;41.25
28626;BME280;18905;42.668;23.364;2023-02-19T10:30:54;95325.84;;;19.48;41.23
28626;BME280;18905;42.668;23.364;2023-02-19T10:33:20;95316.44;;;19.71;39.90
28626;BME280;18905;42.668;23.364;2023-02-19T10:35:55;95314.06;;;19.21;40.06
28626;BME280;18905;42.668;23.364;2023-02-19T10:38:34;95304.81;;;18.43;41.23
28626;BME280;18905;42.668;23.364;2023-02-19T10:41:03;95301.94;;;18.96;41.39
28626;BME280;18905;42.668;23.364;2023-02-19T10:43:31;95304.47;;;18.86;40.78
28626;BME280;18905;42.668;23.364;2023-02-19T10:46:13;95296.69;;;19.59;39.69
28626;BME280;18905;42.668;23.364;2023-02-19T10:48:41;95286.63;;;19.40;40.13
28626;BME280;18905;42.668;23.364;2023-02-19T10:51:08;95278.31;;;19.33;39.98
28626;BME280;18905;42.668;23.364;2023-02-19T10:53:42;95280.72;;;19.94;38.82
28626;BME280;18905;42.668;23.364;2023-02-19T10:58:36;95269.91;;;20.04;39.21
28626;BME280;18905;42.668;23.364;2023-02-19T11:01:20;95278.41;;;20.22;38.30
28626;BME280;18905;42.668;23.364;2023-02-19T11:03:46;95264.28;;;20.56;38.41
28626;BME280;18905;42.668;23.364;2023-02-19T11:06:12;95259.09;;;19.56;39.33
28626;BME280;18905;42.668;23.364;2023-02-19T11:08:57;95249.31;;;20.14;38.13
28626;BME280;18905;42.668;23.364;2023-02-19T11:13:56;95239.50;;;19.83;39.00
28626;BME280;18905;42.668;23.364;2023-02-19T11:16:22;95238.84;;;19.93;39.19
28626;BME280;18905;42.668;23.364;2023-02-19T11:18:52;95233.88;;;19.43;39.55
28626;BME280;18905;42.668;23.364;2023-02-19T11:21:26;95228.13;;;19.81;39.28
28626;BME280;18905;42.668;23.364;2023-02-19T11:23:57;95229.69;;;19.23;39.17
28626;BME280;18905;42.668;23.364;2023-02-19T11:26:24;95223.16;;;18.86;39.61
28626;BME280;18905;42.668;23.364;2023-02-19T11:29:33;95210.28;;;18.42;40.49
28626;BME280;18905;42.668;23.364;2023-02-19T11:31:39;95214.72;;;18.08;41.06
28626;BME280;18905;42.668;23.364;2023-02-19T11:36:39;95201.50;;;18.10;41.04
28626;BME280;18905;42.668;23.364;2023-02-19T11:53:46;95167.69;;;18.86;39.69
28626;BME280;18905;42.668;23.364;2023-02-19T12:06:22;95148.41;;;20.73;36.67
28626;BME280;18905;42.668;23.364;2023-02-19T12:16:30;95128.00;;;20.67;35.72
28626;BME280;18905;42.668;23.364;2023-02-19T12:19:03;95111.50;;;20.60;35.45
28626;BME280;18905;42.668;23.364;2023-02-19T12:21:48;95108.63;;;20.94;35.73
28626;BME280;18905;42.668;23.364;2023-02-19T12:34:48;95084.72;;;20.47;36.09
28626;BME280;18905;42.668;23.364;2023-02-19T12:43:08;95070.28;;;21.08;35.69
28626;BME280;18905;42.668;23.364;2023-02-19T12:45:16;95064.97;;;20.81;36.35
28626;BME280;18905;42.668;23.364;2023-02-19T12:47:44;95073.56;;;20.73;36.78
28626;BME280;18905;42.668;23.364;2023-02-19T12:50:20;95073.22;;;20.81;36.40
28626;BME280;18905;42.668;23.364;2023-02-19T12:52:48;95062.50;;;20.62;36.39
28626;BME280;18905;42.668;23.364;2023-02-19T12:55:49;95056.66;;;20.67;36.06
28626;BME280;18905;42.668;23.364;2023-02-19T12:58:11;95051.13;;;21.18;35.81
28626;BME280;18905;42.668;23.364;2023-02-19T13:00:43;95042.19;;;21.42;35.18
28626;BME280;18905;42.668;23.364;2023-02-19T13:08:40;95035.97;;;21.63;34.68
28626;BME280;18905;42.668;23.364;2023-02-19T13:11:09;95030.03;;;21.43;35.13
28626;BME280;18905;42.668;23.364;2023-02-19T13:13:39;95028.50;;;21.63;34.68
28626;BME280;18905;42.668;23.364;2023-02-19T13:16:08;95019.50;;;21.66;35.02
28626;BME280;18905;42.668;23.364;2023-02-19T13:18:57;95015.56;;;21.57;34.99
28626;BME280;18905;42.668;23.364;2023-02-19T13:21:24;95019.78;;;21.37;35.11
28626;BME280;18905;42.668;23.364;2023-02-19T13:24:13;95005.75;;;21.59;34.91
28626;BME280;18905;42.668;23.364;2023-02-19T13:29:33;95001.97;;;20.92;35.32
28626;BME280;18905;42.668;23.364;2023-02-19T13:37:13;94989.88;;;20.42;35.99
28626;BME280;18905;42.668;23.364;2023-02-19T13:39:46;94986.66;;;20.91;35.27
28626;BME280;18905;42.668;23.364;2023-02-19T13:42:35;94977.59;;;20.83;35.68
28626;BME280;18905;42.668;23.364;2023-02-19T13:45:00;94985.19;;;21.11;35.07
28626;BME280;18905;42.668;23.364;2023-02-19T13:50:16;94977.34;;;21.17;34.50
28626;BME280;18905;42.668;23.364;2023-02-19T13:52:41;94977.75;;;21.15;34.42
28626;BME280;18905;42.668;23.364;2023-02-19T13:57:51;94974.13;;;20.32;35.29
28626;BME280;18905;42.668;23.364;2023-02-19T14:06:00;94968.75;;;19.96;36.32
28626;BME280;18905;42.668;23.364;2023-02-19T14:08:45;94967.56;;;19.97;35.96
28626;BME280;18905;42.668;23.364;2023-02-19T14:11:11;94967.66;;;19.60;36.79
28626;BME280;18905;42.668;23.364;2023-02-19T14:18:56;94954.38;;;19.66;36.35
28626;BME280;18905;42.668;23.364;2023-02-19T14:21:22;94964.91;;;19.60;37.12
28626;BME280;18905;42.668;23.364;2023-02-19T14:23:53;94952.47;;;19.70;36.47
28626;BME280;18905;42.668;23.364;2023-02-19T14:26:20;94949.00;;;19.76;36.45
28626;BME280;18905;42.668;23.364;2023-02-19T14:28:45;94946.69;;;19.78;36.01
28626;BME280;18905;42.668;23.364;2023-02-19T14:31:27;94939.31;;;19.86;36.05
28626;BME280;18905;42.668;23.364;2023-02-19T14:34:00;94940.84;;;19.83;36.35
28626;BME280;18905;42.668;23.364;2023-02-19T14:39:05;94933.03;;;19.85;36.96
28626;BME280;18905;42.668;23.364;2023-02-19T14:41:36;94926.22;;;18.92;38.53
28626;BME280;18905;42.668;23.364;2023-02-19T14:44:02;94928.94;;;18.89;39.34
28626;BME280;18905;42.668;23.364;2023-02-19T14:46:33;94927.44;;;18.95;39.16
28626;BME280;18905;42.668;23.364;2023-02-19T14:49:46;94929.00;;;18.96;39.10
28626;BME280;18905;42.668;23.364;2023-02-19T14:51:48;94916.56;;;19.02;39.07
28626;BME280;18905;42.668;23.364;2023-02-19T14:54:16;94926.91;;;18.82;39.44